Latest Weather Observations for Dum In Mirrie

IDD60901

Issued at 4:01 pm CST Thursday 28 January 2021 (issued every 10 minutes, with the page automatically refreshed every 10 minutes)

About weather observations | Map of Darwin area stations | Latest observations for Darwin area | Other Formats
Station Details ID: 014277 Name: DUM IN MIRRIE AIRSTRIP Lat: -12.63 Lon: 130.37 Height: 3.5 m
Data from the previous 72 hours. | See also: Recent months at Dum In Mirrie
Date/Time
CST
Temp
°C
App
Temp
°C
Dew
Point
°C
Rel
Hum
%
Delta-T
°C
Wind Press
QNH
hPa
Press
MSL
hPa
Rain since
9am
mm
Dir  Spd
km/h
Gust
km/h
Spd
kts
Gust
kts
28/04:00pm 27.4 - - - - WNW 9 19 5 10 1001.9 1001.9 14.4
28/03:30pm 26.7 - - - - WNW 9 15 5 8 1002.4 1002.4 14.4
28/03:00pm 26.6 - - - - WNW 11 20 6 11 1003.3 1003.3 14.4
28/02:30pm 26.2 - - - - WNW 11 22 6 12 1003.7 1003.7 14.4
28/02:00pm 26.1 - - - - NW 13 24 7 13 1004.0 1004.0 13.8
28/01:30pm 26.8 - - - - W 9 19 5 10 1004.2 1004.2 13.0
28/01:00pm 26.5 - - - - W 11 22 6 12 1004.6 1004.6 13.0
28/12:30pm 25.9 - - - - W 13 22 7 12 1004.3 1004.3 13.0
28/12:00pm 25.3 - - - - NNW 7 11 4 6 1004.5 1004.5 12.8
28/11:30am 27.4 - - - - WNW 6 13 3 7 1004.5 1004.5 10.2
28/11:00am 26.9 - - - - W 11 19 6 10 1004.8 1004.8 10.2
28/10:30am 27.0 - - - - W 13 28 7 15 1004.9 1004.9 10.2
28/10:00am 26.5 - - - - W 20 35 11 19 1004.5 1004.5 10.2
28/09:30am 24.5 - - - - W 19 37 10 20 1004.8 1004.8 9.2
28/09:00am 25.5 - - - - WNW 4 9 2 5 1004.3 1004.3 23.6
28/08:30am 24.8 - - - - W 7 15 4 8 1004.1 1004.1 23.4
28/08:00am 25.9 - - - - WNW 17 37 9 20 1004.2 1004.2 14.2
28/07:30am 26.8 - - - - W 17 35 9 19 1003.4 1003.4 14.0
28/07:00am 28.4 - - - - NW 11 17 6 9 1002.5 1002.5 13.8
28/06:30am 28.3 - - - - WNW 11 22 6 12 1002.3 1002.3 13.8
28/06:00am 28.3 - - - - WNW 11 22 6 12 1002.2 1002.2 13.8
28/05:30am 28.2 - - - - WNW 9 20 5 11 1002.3 1002.3 13.8
28/05:00am 27.8 - - - - WNW 11 20 6 11 1002.0 1002.0 13.8
28/04:30am 27.4 - - - - WNW 15 26 8 14 1002.0 1002.0 13.8
28/04:00am 26.3 - - - - W 11 19 6 10 1001.6 1001.6 13.8
28/03:30am 26.7 - - - - W 11 19 6 10 1001.5 1001.5 12.8
28/03:00am 25.3 - - - - W 13 26 7 14 1002.1 1002.1 12.8
28/02:38am 27.6 - - - - WNW 17 43 9 23 1001.9 1001.9 9.2
28/02:30am 28.5 - - - - WNW 9 19 5 10 1001.7 1001.7 9.2
28/02:00am 28.5 - - - - WNW 11 22 6 12 1002.0 1002.0 9.2
28/01:30am 28.5 - - - - WNW 15 26 8 14 1002.6 1002.6 9.2
28/01:00am 28.4 - - - - WNW 13 24 7 13 1002.7 1002.7 9.2
28/12:30am 28.5 - - - - WNW 13 20 7 11 1003.1 1003.1 9.2
28/12:00am 28.2 - - - - W 11 24 6 13 1003.2 1003.2 9.2
 
Date/Time
CST
Temp
°C
App
Temp
°C
Dew
Point
°C
Rel
Hum
%
Delta-T
°C
Wind Press
QNH
hPa
Press
MSL
hPa
Rain since
9am
mm
Dir  Spd
km/h
Gust
km/h
Spd
kts
Gust
kts
27/11:30pm 27.4 - - - - WNW 13 22 7 12 1003.4 1003.4 9.2
27/11:00pm 28.7 - - - - WNW 13 24 7 13 1003.3 1003.3 9.0
27/10:30pm 28.6 - - - - WNW 11 26 6 14 1003.2 1003.2 9.0
27/10:00pm 28.5 - - - - WNW 13 22 7 12 1003.0 1003.0 9.0
27/09:30pm 28.1 - - - - WNW 13 20 7 11 1002.7 1002.7 9.0
27/09:00pm 27.1 - - - - WNW 7 13 4 7 1002.5 1002.5 9.0
27/08:30pm 26.4 - - - - W 13 20 7 11 1002.2 1002.2 9.0
27/08:00pm 28.4 - - - - WNW 13 24 7 13 1001.9 1001.9 8.2
27/07:30pm 28.2 - - - - WNW 13 22 7 12 1001.6 1001.6 8.2
27/07:00pm 28.3 - - - - W 15 26 8 14 1001.1 1001.1 8.2
27/06:30pm 28.6 - - - - W 17 30 9 16 1000.9 1000.9 8.2
27/06:00pm 29.2 - - - - WNW 15 28 8 15 1000.6 1000.6 8.2
27/05:30pm 29.2 - - - - WNW 13 24 7 13 1000.2 1000.2 8.0
27/05:00pm 30.0 - - - - WNW 15 26 8 14 1000.0 1000.0 8.0
27/04:30pm 29.0 - - - - WNW 13 26 7 14 1000.0 1000.0 8.0
27/04:00pm 28.3 - - - - WNW 15 30 8 16 999.9 999.9 8.0
27/03:30pm 26.1 - - - - W 11 22 6 12 1000.3 1000.3 8.0
27/03:00pm 28.1 - - - - WNW 13 22 7 12 1000.5 1000.5 4.8
27/02:30pm 29.0 - - - - WNW 15 30 8 16 1000.5 1000.5 4.8
27/02:00pm 28.3 - - - - NW 13 24 7 13 1000.8 1000.8 4.8
27/01:30pm 26.3 - - - - WNW 19 41 10 22 1001.5 1001.5 3.8
27/01:00pm 29.8 - - - - NW 11 20 6 11 1001.5 1001.5 0.2
27/12:30pm 29.7 - - - - NW 11 17 6 9 1001.7 1001.7 0.2
27/12:00pm 29.2 - - - - NW 11 22 6 12 1002.0 1002.0 0.2
27/11:30am 28.7 - - - - NW 11 20 6 11 1002.2 1002.2 0.0
27/11:00am 28.2 - - - - NW 9 19 5 10 1002.2 1002.2 0.0
27/10:30am 28.0 - - - - NW 9 19 5 10 1002.5 1002.5 0.0
27/10:00am 27.6 - - - - NW 11 22 6 12 1002.7 1002.7 0.0
27/09:30am 27.5 - - - - NW 13 24 7 13 1002.9 1002.9 0.0
27/09:00am 27.2 - - - - NW 15 24 8 13 1002.5 1002.5 16.0
27/08:30am 26.7 - - - - NW 13 22 7 12 1002.2 1002.2 16.0
27/08:00am 26.4 - - - - WNW 11 28 6 15 1001.8 1001.8 15.2
27/07:30am 25.9 - - - - NW 7 15 4 8 1001.4 1001.4 15.2
27/07:00am 25.2 - - - - NE 4 7 2 4 1001.0 1001.0 15.2
27/06:30am 25.1 - - - - CALM 0 0 0 0 1000.7 1000.7 15.2
27/06:00am 25.0 - - - - CALM 0 4 0 2 1000.5 1000.5 15.2
27/05:30am 24.5 - - - - NE 2 7 1 4 1000.4 1000.4 15.2
27/05:00am 24.7 - - - - ENE 2 6 1 3 1000.2 1000.2 15.2
27/04:30am 24.9 - - - - ESE 6 13 3 7 1000.2 1000.2 15.2
27/04:00am 25.2 - - - - SSE 7 13 4 7 1000.7 1000.7 11.8
27/03:30am 26.6 - - - - SSW 9 20 5 11 1000.4 1000.4 11.0
27/03:00am 28.2 - - - - WNW 11 20 6 11 1000.1 1000.1 11.0
27/02:30am 28.1 - - - - WNW 11 24 6 13 1000.4 1000.4 11.0
27/02:00am 27.6 - - - - WNW 9 17 5 9 1000.7 1000.7 11.0
27/01:30am 26.9 - - - - NW 9 20 5 11 1001.0 1001.0 11.0
27/01:00am 25.8 - - - - ENE 2 6 1 3 1001.4 1001.4 10.8
27/12:30am 25.4 - - - - NNE 6 11 3 6 1001.9 1001.9 10.2
27/12:00am 25.0 - - - - NE 2 4 1 2 1002.2 1002.2 7.8
 
Date/Time
CST
Temp
°C
App
Temp
°C
Dew
Point
°C
Rel
Hum
%
Delta-T
°C
Wind Press
QNH
hPa
Press
MSL
hPa
Rain since
9am
mm
Dir  Spd
km/h
Gust
km/h
Spd
kts
Gust
kts
26/11:30pm 25.0 - - - - CALM 0 2 0 1 1002.5 1002.5 7.8
26/11:00pm 25.0 - - - - CALM 0 0 0 0 1002.5 1002.5 7.8
26/10:30pm 25.1 - - - - CALM 0 0 0 0 1002.6 1002.6 7.8
26/10:00pm 24.9 - - - - CALM 0 0 0 0 1002.2 1002.2 7.8
26/09:30pm 25.0 - - - - CALM 0 0 0 0 1001.8 1001.8 7.8
26/09:00pm 25.0 - - - - CALM 0 0 0 0 1001.7 1001.7 7.8
26/08:30pm 25.0 - - - - CALM 0 0 0 0 1001.9 1001.9 7.8
26/08:00pm 25.2 - - - - CALM 0 0 0 0 1001.6 1001.6 7.8
26/07:30pm 25.3 - - - - S 4 9 2 5 1001.5 1001.5 7.8
26/07:00pm 25.5 - - - - SSW 11 20 6 11 1001.5 1001.5 7.8
26/06:30pm 25.5 - - - - SW 11 28 6 15 1001.7 1001.7 6.8
26/06:00pm 26.9 - - - - SSW 9 17 5 9 1001.1 1001.1 4.8
26/05:30pm 26.8 - - - - SW 13 24 7 13 1000.8 1000.8 4.8
26/05:00pm 26.2 - - - - SSW 17 32 9 17 1001.2 1001.2 4.8
26/04:30pm 26.1 - - - - SSW 13 30 7 16 1001.0 1001.0 4.0
26/04:00pm 27.4 - - - - S 4 15 2 8 1001.0 1001.0 1.6
26/03:30pm 27.2 - - - - S 4 6 2 3 1001.0 1001.0 1.6
26/03:00pm 26.9 - - - - S 7 13 4 7 1001.3 1001.3 0.2
26/02:30pm 31.2 - - - - W 11 19 6 10 1001.5 1001.5 0.2
26/02:00pm 29.7 - - - - WSW 6 11 3 6 1002.0 1002.0 0.2
26/01:30pm 29.1 - - - - SW 7 13 4 7 1002.3 1002.3 0.2
26/01:00pm 29.0 - - - - SW 9 15 5 8 1002.8 1002.8 0.2
26/12:30pm 28.4 - - - - SSW 9 17 5 9 1003.0 1003.0 0.2
26/12:00pm 27.7 - - - - SSW 13 22 7 12 1003.2 1003.2 0.2
26/11:30am 26.5 - - - - SSW 17 33 9 18 1003.3 1003.3 0.2
26/11:00am 28.9 - - - - WSW 7 24 4 13 1003.2 1003.2 0.0
26/10:30am 28.4 - - - - WSW 15 37 8 20 1003.2 1003.2 0.0
26/10:00am 28.0 - - - - SW 15 30 8 16 1003.1 1003.1 0.0
26/09:30am 27.6 - - - - SW 9 24 5 13 1003.2 1003.2 0.0
26/09:00am 27.1 - - - - SW 9 20 5 11 1003.4 1003.4 70.2
26/08:30am 28.2 - - - - SW 6 17 3 9 1003.5 1003.5 70.2
26/08:00am 28.2 - - - - W 13 24 7 13 1003.4 1003.4 70.2
26/07:30am 28.0 - - - - W 11 24 6 13 1003.2 1003.2 70.2
26/07:00am 27.7 - - - - W 11 20 6 11 1003.0 1003.0 70.2
26/06:30am 27.7 - - - - WNW 13 22 7 12 1002.5 1002.5 70.2
26/06:00am 27.7 - - - - W 13 22 7 12 1002.6 1002.6 70.2
26/05:30am 27.8 - - - - W 17 32 9 17 1002.6 1002.6 70.2
26/05:00am 27.7 - - - - WSW 19 28 10 15 1002.3 1002.3 70.2
26/04:30am 27.2 - - - - WSW 7 19 4 10 1002.1 1002.1 70.2
26/04:00am 26.9 - - - - WSW 7 19 4 10 1001.8 1001.8 70.2
26/03:30am 26.9 - - - - WSW 15 28 8 15 1001.8 1001.8 70.2
26/03:00am 26.8 - - - - WSW 20 32 11 17 1001.8 1001.8 70.2
26/02:30am 26.6 - - - - W 20 37 11 20 1001.9 1001.9 70.2
26/02:00am 26.2 - - - - WSW 22 35 12 19 1002.5 1002.5 70.2
26/01:30am 26.2 - - - - W 20 35 11 19 1003.1 1003.1 70.2
26/01:00am 25.8 - - - - WSW 20 37 11 20 1003.8 1003.8 70.0
26/12:30am 25.2 - - - - W 20 35 11 19 1004.7 1004.7 69.8
26/12:00am 25.2 - - - - W 17 28 9 15 1005.1 1005.1 68.6
 
Date/Time
CST
Temp
°C
App
Temp
°C
Dew
Point
°C
Rel
Hum
%
Delta-T
°C
Wind Press
QNH
hPa
Press
MSL
hPa
Rain since
9am
mm
Dir  Spd
km/h
Gust
km/h
Spd
kts
Gust
kts
25/11:30pm 25.6 - - - - W 15 30 8 16 1005.4 1005.4 66.2
25/11:00pm 25.1 - - - - W 26 41 14 22 1005.6 1005.6 62.0
25/10:30pm 25.0 - - - - WSW 28 44 15 24 1005.2 1005.2 55.8
25/10:12pm 25.0 - - - - W 28 48 15 26 1005.0 1005.0 50.2
25/10:00pm 25.5 - - - - W 22 43 12 23 1004.6 1004.6 46.0
25/09:38pm 25.6 - - - - W 28 56 15 30 1003.6 1003.6 38.4
25/09:30pm 25.2 - - - - WNW 22 48 12 26 1004.3 1004.3 33.8
25/09:00pm 24.8 - - - - WNW 13 24 7 13 1004.6 1004.6 24.0
25/08:30pm 26.0 - - - - WNW 6 11 3 6 1004.1 1004.1 14.6
25/08:00pm 26.0 - - - - SW 6 11 3 6 1003.7 1003.7 12.6
25/07:30pm 26.4 - - - - SW 9 24 5 13 1003.4 1003.4 9.4
25/07:00pm 27.1 - - - - WSW 17 30 9 16 1003.2 1003.2 9.0
25/06:30pm 27.0 - - - - SW 11 26 6 14 1002.6 1002.6 9.0
25/06:00pm 28.5 - - - - W 11 20 6 11 1002.2 1002.2 9.0
25/05:30pm 28.8 - - - - W 11 22 6 12 1002.0 1002.0 9.0
25/05:00pm 28.4 - - - - W 17 30 9 16 1002.2 1002.2 9.0
25/04:30pm 28.1 - - - - W 15 28 8 15 1002.1 1002.1 9.0

Latest Capital City Observations: Canberra | Sydney | Melbourne | Brisbane | Adelaide | Perth | Hobart | Darwin

Other formats

Comma delimited format used in spreadsheet applications
http://www.bom.gov.au/fwo/IDD60901/IDD60901.94116.axf

JavaScript Object Notation format (JSON) in row-major order
http://www.bom.gov.au/fwo/IDD60901/IDD60901.94116.json

Data quality

Most of these data are generated automatically and are frequently updated. Quality checks on data are not normally performed. It is possible for incorrect values to appear. Refer to information at About Latest Weather Observations and please check the disclaimer before using these data.